Terminal Aerodrome Forecast
Issued by NWS

Home | Current Version | Previous Version | Graphics & Text | Print | Product List | Glossary On
Versions: 1 2 3 4 5 6 7 8 9 10 11 12 13 14 15 16 17 18 19 20 21
000
FTUS43 KMPX 202337
TAFAXN
TAF
KAXN 202337Z 2100/2124 13010KT 1 1/2SM BR OVC002
     FM210300 14009KT 1/2SM FG OVC002
     FM211500 11007KT 1SM -RA BR OVC003
     FM212100 09004KT 3SM -DZ BR OVC004=

USA.gov is the U.S. government's official web portal to all federal, state and local government web resources and services.